Time;durP1;ratioP1;P1;durP2;ratioP2;P2;SDS_P1;SDS_P2;PMS_P1;PMS_P2;Temp;Humidity;BMP_temperature;BMP_pressure;BME280_temperature;BME280_humidity;BME280_pressure;Samples;Min_cycle;Max_cycle;Signal;HPM_P1;HPM_P2
2022/09/08 00:01:13;;;;;;;;;;;;;;;11.60;62.54;100824.19;1790809;80;21001;-73
2022/09/08 00:03:49;;;;;;;11.70;8.33;;;;;;;11.61;62.49;100822.31;1786710;80;20132;-73
2022/09/08 00:06:23;;;;;;;12.88;9.10;;;;;;;11.60;62.45;100820.72;1789935;80;21050;-73
2022/09/08 00:09:01;;;;;;;;;;;;;;;;;;;;;
2022/09/08 00:11:34;;;;;;;12.13;8.75;;;;;;;11.63;62.58;100812.17;1796377;78;20142;-73
2022/09/08 00:14:10;;;;;;;13.08;8.90;;;;;;;11.62;62.61;100810.03;1825331;78;20924;-73
2022/09/08 00:16:46;;;;;;;15.05;9.38;;;;;;;11.65;62.80;100811.40;1818043;78;21244;-73
2022/09/08 00:19:24;;;;;;;16.32;9.43;;;;;;;11.72;62.93;100810.10;1745905;81;21008;-73
2022/09/08 00:21:58;;;;;;;13.43;9.10;;;;;;;11.80;63.17;100810.67;1759316;81;21050;-72
2022/09/08 00:24:33;;;;;;;11.43;8.33;;;;;;;11.88;63.19;100805.69;1790174;78;21121;-72
2022/09/08 00:27:04;;;;;;;12.07;8.85;;;;;;;11.93;63.48;100819.08;1803448;78;20976;-72
2022/09/08 00:29:42;;;;;;;;;;;;;;;;;;;;;
2022/09/08 00:32:27;;;;;;;12.63;8.28;;;;;;;12.03;63.56;100821.00;1786540;78;21113;-73
2022/09/08 00:35:00;;;;;;;14.47;9.23;;;;;;;12.09;63.36;100808.45;1787385;79;21296;-73
2022/09/08 00:37:36;;;;;;;13.08;8.50;;;;;;;12.07;63.15;100813.25;1792997;80;20977;-72
2022/09/08 00:40:09;;;;;;;12.70;9.38;;;;;;;12.10;63.06;100812.20;1791119;79;21036;-74
2022/09/08 00:42:42;;;;;;;12.13;8.48;;;;;;;12.14;62.94;100807.13;1777745;79;20998;-73
2022/09/08 00:45:25;;;;;;;13.80;9.40;;;;;;;12.17;62.77;100801.25;1801662;79;21520;-73
2022/09/08 00:48:10;;;;;;;11.78;8.60;;;;;;;12.20;62.75;100796.17;1800151;79;21418;-72
2022/09/08 00:50:53;;;;;;;11.80;8.68;;;;;;;12.26;62.76;100792.99;1744976;82;21062;-73
2022/09/08 00:53:38;;;;;;;;;;;;;;;;;;;;;
2022/09/08 00:56:07;;;;;;;13.83;8.95;;;;;;;12.33;62.63;100796.23;1758422;81;21128;-73
2022/09/08 00:58:39;;;;;;;12.50;8.40;;;;;;;12.36;62.50;100794.37;1767769;78;21400;-72
2022/09/08 01:01:12;;;;;;;10.50;7.67;;;;;;;12.29;62.45;100783.09;1792996;78;21043;-73
2022/09/08 01:03:55;;;;;;;12.90;8.40;;;;;;;12.20;62.43;100786.00;1787104;78;20912;-72
2022/09/08 01:13:13;;;;;;;12.50;7.72;;;;;;;12.14;62.76;100775.00;1749037;81;21052;-72
2022/09/08 01:15:44;;;;;;;;;;;;;;;11.98;63.17;100768.80;1755344;79;21037;-72
2022/09/08 01:18:29;;;;;;;12.35;7.80;;;;;;;11.88;63.41;100774.09;1805417;79;20134;-72
2022/09/08 01:21:23;;;;;;;;;;;;;;;;;;;;;
2022/09/08 01:24:16;;;;;;;12.43;7.95;;;;;;;11.90;63.54;100769.27;1806457;79;21011;-73
2022/09/08 01:27:12;;;;;;;13.15;7.97;;;;;;;11.92;63.61;100770.62;1806065;79;21007;-73
2022/09/08 01:29:43;;;;;;;10.32;7.40;;;;;;;11.97;63.54;100767.96;1806070;79;20996;-73
2022/09/08 01:32:17;;;;;;;10.95;8.13;;;;;;;12.03;63.43;100762.64;1779959;79;21082;-72
2022/09/08 01:35:09;;;;;;;11.38;7.85;;;;;;;12.08;63.55;100762.14;1761959;81;21095;-72
2022/09/08 01:37:36;;;;;;;10.55;7.83;;;;;;;12.12;63.53;100757.06;1786898;80;21135;-73
2022/09/08 01:40:23;;;;;;;;;;;;;;;;;;;;;
2022/09/08 01:42:54;;;;;;;10.30;7.55;;;;;;;12.22;63.52;100769.15;1752743;81;21034;-72
2022/09/08 01:45:32;;;;;;;12.07;7.42;;;;;;;12.28;63.46;100770.78;1793359;80;21616;-73
2022/09/08 01:48:21;;;;;;;;;;;;;;;;;;;;;
2022/09/08 01:50:50;;;;;;;11.57;7.22;;;;;;;12.36;63.36;100777.49;1777620;79;21155;-72
2022/09/08 01:53:16;;;;;;;;;;;;;;;12.40;63.35;100776.72;1812284;78;21784;-73
2022/09/08 01:55:55;;;;;;;10.50;7.53;;;;;;;12.46;63.33;100782.87;1787017;80;20653;-74
2022/09/08 01:58:23;;;;;;;11.75;7.90;;;;;;;12.50;63.39;100779.13;1792881;80;21045;-72
2022/09/08 02:00:52;;;;;;;;;;;;;;;12.56;63.52;100776.20;1827596;78;21097;-73
2022/09/08 02:03:35;;;;;;;;;;;;;;;;;;;;;
2022/09/08 02:06:05;;;;;;;10.98;7.25;;;;;;;12.69;63.64;100770.88;1786640;79;20988;-73
2022/09/08 02:08:43;;;;;;;12.05;7.53;;;;;;;12.78;63.62;100777.86;1811033;79;21106;-73
2022/09/08 02:11:21;;;;;;;;;;;;;;;;;;;;;
2022/09/08 02:13:43;;;;;;;12.00;8.73;;;;;;;12.88;63.29;100775.20;1819725;78;21026;-73
2022/09/08 02:16:27;;;;;;;;;;;;;;;;;;;;;
2022/09/08 02:18:59;;;;;;;;;;;;;;;;;;;;;
2022/09/08 02:21:24;;;;;;;11.60;7.77;;;;;;;13.00;63.13;100767.70;1790581;78;20960;-73
2022/09/08 02:24:13;;;;;;;;;;;;;;;;;;;;;
2022/09/08 02:26:45;;;;;;;11.10;7.85;;;;;;;13.06;63.09;100763.13;1793399;80;21040;-73
2022/09/08 02:29:23;;;;;;;11.35;7.90;;;;;;;13.05;62.93;100758.84;1793107;80;21103;-73
2022/09/08 02:31:55;;;;;;;12.35;8.20;;;;;;;12.98;62.84;100762.34;1792586;79;21501;-73
2022/09/08 02:34:30;;;;;;;10.72;8.13;;;;;;;12.84;62.89;100764.20;1790008;79;21031;-72
2022/09/08 02:37:21;;;;;;;13.05;9.08;;;;;;;12.78;63.03;100762.58;1793098;79;21009;-72
2022/09/08 02:39:46;;;;;;;12.80;8.85;;;;;;;12.67;63.01;100756.95;1779905;79;20925;-72
2022/09/08 02:42:14;;;;;;;13.58;9.20;;;;;;;12.57;63.07;100752.37;1813793;78;20993;-72
2022/09/08 02:44:46;;;;;;;14.95;10.13;;;;;;;12.49;63.03;100757.44;1820767;78;20993;-74
2022/09/08 02:47:20;;;;;;;14.50;10.58;;;;;;;12.37;63.15;100751.80;1823088;78;20985;-73
2022/09/08 02:50:01;;;;;;;15.35;10.58;;;;;;;12.30;63.42;100760.59;1825638;78;21523;-73
2022/09/08 02:52:36;;;;;;;15.25;10.80;;;;;;;12.24;63.73;100758.98;1825740;78;21056;-73
2022/09/08 02:55:10;;;;;;;14.80;10.38;;;;;;;12.19;63.95;100752.27;1791918;80;21552;-74
2022/09/08 02:57:43;;;;;;;16.87;10.82;;;;;;;12.11;63.96;100753.59;1823729;78;21044;-73
2022/09/08 03:00:20;;;;;;;17.27;10.68;;;;;;;12.05;63.88;100759.19;1786667;79;22188;-73
2022/09/08 03:02:52;;;;;;;13.60;10.05;;;;;;;12.02;63.87;100765.05;1792511;80;21014;-73
2022/09/08 03:05:33;;;;;;;15.45;9.35;;;;;;;12.01;63.79;100763.42;1823134;78;20986;-73
2022/09/08 03:08:14;;;;;;;;;;;;;;;;;;;;;
2022/09/08 03:10:53;;;;;;;;;;;;;;;;;;;;;
2022/09/08 03:13:19;;;;;;;15.20;10.23;;;;;;;11.88;63.52;100757.50;1784662;80;21017;-73
2022/09/08 03:15:52;;;;;;;16.48;11.10;;;;;;;11.85;63.69;100760.70;1787208;80;21085;-73
2022/09/08 03:18:28;;;;;;;15.93;10.75;;;;;;;11.82;63.81;100762.52;1769280;80;21035;-74
2022/09/08 03:21:11;;;;;;;17.12;10.50;;;;;;;11.79;64.18;100764.38;1761987;81;21773;-74
2022/09/08 03:23:45;;;;;;;16.23;9.88;;;;;;;11.81;64.47;100772.94;1793081;80;20975;-73
2022/09/08 03:26:24;;;;;;;17.32;10.43;;;;;;;11.84;64.75;100768.94;1790893;80;21031;-74
2022/09/08 03:28:52;;;;;;;18.73;11.33;;;;;;;11.87;64.95;100769.25;1790775;80;20991;-73
2022/09/08 03:31:25;;;;;;;15.63;10.50;;;;;;;11.89;65.29;100772.48;1794751;78;20959;-73
2022/09/08 03:33:53;;;;;;;15.78;10.50;;;;;;;11.91;65.66;100774.38;1788833;78;20980;-73
2022/09/08 03:36:34;;;;;;;14.05;10.55;;;;;;;11.97;65.94;100773.31;1777491;78;21510;-73
2022/09/08 03:39:06;;;;;;;15.40;10.40;;;;;;;12.02;66.12;100769.07;1786658;78;20976;-72
2022/09/08 03:41:40;;;;;;;15.13;10.98;;;;;;;12.04;66.26;100766.92;1791068;78;20936;-72
2022/09/08 03:44:16;;;;;;;15.65;10.75;;;;;;;12.03;66.33;100766.66;1793014;78;21090;-73
2022/09/08 03:46:47;;;;;;;14.90;10.73;;;;;;;12.03;66.35;100763.45;1793498;80;22051;-72
2022/09/08 03:49:21;;;;;;;14.60;9.83;;;;;;;12.06;66.29;100764.80;1791359;78;20922;-72
2022/09/08 03:51:54;;;;;;;17.10;10.80;;;;;;;12.07;66.22;100761.05;1793318;80;21401;-72
2022/09/08 03:57:19;;;;;;;14.03;10.43;;;;;;;12.07;65.82;100758.37;1793003;80;20981;-72
2022/09/08 03:59:51;;;;;;;15.65;9.83;;;;;;;12.11;65.68;100758.11;1810186;78;21101;-73
2022/09/08 04:02:27;;;;;;;16.20;10.40;;;;;;;12.15;65.55;100757.34;1823806;78;21038;-72
2022/09/08 04:05:00;;;;;;;14.85;10.45;;;;;;;12.20;65.32;100759.22;1790741;80;21531;-72
2022/09/08 04:07:34;;;;;;;14.38;9.50;;;;;;;12.24;65.18;100760.84;1790551;79;21031;-73
2022/09/08 04:10:21;;;;;;;16.62;10.78;;;;;;;12.29;65.01;100760.87;1822979;78;20935;-73
2022/09/08 04:12:57;;;;;;;15.63;11.95;;;;;;;12.31;64.78;100754.19;1784824;80;21114;-72
2022/09/08 04:15:25;;;;;;;17.12;12.75;;;;;;;12.38;64.64;100751.27;1793078;78;21038;-71
2022/09/08 04:17:57;;;;;;;17.55;12.65;;;;;;;12.44;64.68;100752.34;1819910;78;21042;-72
2022/09/08 04:20:31;;;;;;;17.92;11.88;;;;;;;12.52;64.82;100754.23;1823544;78;21023;-73
2022/09/08 04:23:15;;;;;;;17.35;11.53;;;;;;;12.60;64.95;100761.73;1802461;78;20948;-73
2022/09/08 04:25:39;;;;;;;14.40;11.22;;;;;;;12.68;65.04;100762.03;1789884;80;22002;-73
2022/09/08 04:28:12;;;;;;;16.93;11.95;;;;;;;12.76;65.09;100763.38;1792907;80;21101;-72
2022/09/08 04:30:53;;;;;;;18.95;11.20;;;;;;;12.83;65.23;100768.47;1752988;81;21549;-72
2022/09/08 04:33:37;;;;;;;;;;;;;;;;;;;;;
2022/09/08 04:35:57;;;;;;;18.73;11.48;;;;;;;12.93;65.25;100773.05;1787379;80;21034;-73
2022/09/08 04:38:33;;;;;;;17.17;12.55;;;;;;;12.99;65.24;100774.66;1783062;80;20999;-73
2022/09/08 04:41:13;;;;;;;18.48;11.90;;;;;;;13.04;65.25;100769.31;1785909;80;21486;-73
2022/09/08 04:43:53;;;;;;;18.37;12.90;;;;;;;13.14;65.21;100767.97;1788294;80;21034;-73
2022/09/08 04:46:27;;;;;;;16.87;12.20;;;;;;;13.27;65.23;100772.82;1794907;78;21076;-72
2022/09/08 04:49:04;;;;;;;18.42;12.15;;;;;;;13.40;65.05;100772.81;1787418;79;21035;-73
2022/09/08 04:51:42;;;;;;;17.52;12.10;;;;;;;13.50;64.75;100774.14;1788593;79;21285;-73
2022/09/08 04:54:27;;;;;;;16.12;12.47;;;;;;;13.62;64.46;100769.80;1786187;79;21834;-73
2022/09/08 04:56:52;;;;;;;17.85;12.63;;;;;;;13.74;64.10;100774.34;1812148;78;21457;-73
2022/09/08 04:59:27;;;;;;;18.70;11.85;;;;;;;13.86;63.91;100768.69;1815635;78;21593;-73
2022/09/08 05:02:20;;;;;;;;;;;;;;;;;;;;;
2022/09/08 05:04:49;;;;;;;16.32;12.03;;;;;;;14.12;63.36;100774.77;1734685;81;21122;-73
2022/09/08 05:07:38;;;;;;;;;;;;;;;;;;;;;
2022/09/08 05:10:04;;;;;;;17.75;11.80;;;;;;;14.33;62.41;100774.67;1791652;78;21237;-72
2022/09/08 05:12:40;;;;;;;16.03;11.53;;;;;;;14.43;61.90;100775.96;1823254;78;20948;-73
2022/09/08 05:15:23;;;;;;;14.20;10.40;;;;;;;14.54;61.45;100775.67;1780531;78;21260;-73
2022/09/08 05:17:49;;;;;;;13.67;10.17;;;;;;;14.68;61.08;100781.23;1820946;78;21823;-73
2022/09/08 05:20:33;;;;;;;13.20;10.33;;;;;;;14.81;60.60;100777.62;1819738;78;21258;-73
2022/09/08 05:23:12;;;;;;;14.80;10.97;;;;;;;14.95;59.94;100781.31;1816049;78;21133;-73
2022/09/08 05:25:43;;;;;;;14.97;10.30;;;;;;;15.07;59.48;100780.94;1774924;78;21121;-72
2022/09/08 05:28:26;;;;;;;14.53;10.80;;;;;;;15.17;58.92;100780.34;1790827;78;21154;-72
2022/09/08 05:30:56;;;;;;;14.20;10.33;;;;;;;15.28;58.41;100779.70;1765028;80;21227;-73
2022/09/08 05:33:34;;;;;;;15.20;10.67;;;;;;;15.37;57.69;100774.52;1804025;79;21224;-73
2022/09/08 05:36:17;;;;;;;14.67;9.90;;;;;;;15.45;57.14;100782.76;1804744;79;21604;-73
2022/09/08 05:38:47;;;;;;;15.47;10.13;;;;;;;15.58;56.80;100782.64;1822278;78;21294;-73
2022/09/08 05:41:22;;;;;;;12.87;8.93;;;;;;;15.70;56.13;100779.05;1821124;78;21748;-73
2022/09/08 05:44:12;;;;;;;13.33;10.27;;;;;;;15.80;55.42;100773.30;1795430;78;21036;-72
2022/09/08 05:46:49;;;;;;;14.93;9.87;;;;;;;15.87;55.01;100779.14;1823627;78;21851;-72
2022/09/08 05:49:25;;;;;;;11.83;8.10;;;;;;;15.98;54.90;100771.73;1815730;78;21124;-72
2022/09/08 05:52:06;;;;;;;11.83;8.33;;;;;;;16.07;53.99;100769.47;1817712;78;21298;-72
2022/09/08 05:54:43;;;;;;;14.10;8.57;;;;;;;16.20;53.37;100771.21;1797653;78;21269;-74
2022/09/08 05:57:15;;;;;;;10.33;7.67;;;;;;;16.33;53.25;100770.50;1774385;78;21195;-73
2022/09/08 05:59:59;;;;;;;;;;;;;;;;;;;;;
2022/09/08 06:02:24;;;;;;;15.57;9.53;;;;;;;16.54;52.32;100773.16;1785586;80;21838;-72
2022/09/08 06:04:59;;;;;;;12.43;8.67;;;;;;;16.60;52.34;100770.64;1780260;78;21466;-72
2022/09/08 06:07:41;;;;;;;9.43;6.53;;;;;;;16.68;52.12;100771.08;1790240;78;21225;-73
2022/09/08 06:10:12;;;;;;;12.23;7.03;;;;;;;16.75;50.35;100770.19;1777002;80;21278;-73
2022/09/08 06:12:56;;;;;;;10.67;7.03;;;;;;;16.93;49.44;100773.97;1791279;79;21426;-74
2022/09/08 06:15:32;;;;;;;12.53;7.53;;;;;;;16.93;49.44;100773.97;1781730;79;21447;-72
2022/09/08 06:18:08;;;;;;;12.33;6.60;;;;;;;17.03;49.34;100771.91;1760320;80;21333;-73
2022/09/08 06:20:38;;;;;;;8.87;6.50;;;;;;;17.17;48.75;100773.84;1759313;80;21306;-71
2022/09/08 06:23:17;;;;;;;;;;;;;;;17.30;47.54;100779.83;1787461;80;21918;-73
2022/09/08 06:25:47;;;;;;;11.30;6.40;;;;;;;17.42;46.56;100776.11;1762555;79;20154;-73
2022/09/08 06:28:53;;;;;;;10.07;6.03;;;;;;;17.53;46.23;100772.67;1791865;79;21340;-73
2022/09/08 06:31:34;;;;;;;8.28;5.95;;;;;;;17.65;45.09;100769.50;1791504;79;21358;-72
2022/09/08 06:34:20;;;;;;;;;;;;;;;;;;;;;
2022/09/08 06:37:11;;;;;;;7.77;5.37;;;;;;;17.88;43.81;100781.25;1774430;80;21597;-71
2022/09/08 06:39:49;;;;;;;8.70;5.40;;;;;;;17.97;42.98;100784.86;1793196;80;21522;-72
2022/09/08 06:42:30;;;;;;;8.70;5.20;;;;;;;18.08;42.17;100780.84;1790860;79;21682;-72
2022/09/08 06:45:22;;;;;;;;;;;;;;;;;;;;;
2022/09/08 06:47:47;;;;;;;7.83;4.87;;;;;;;18.29;41.48;100783.91;1767151;80;21720;-72
2022/09/08 06:50:38;;;;;;;;;;;;;;;;;;;;;
2022/09/08 06:52:56;;;;;;;8.13;5.10;;;;;;;18.49;41.20;100791.60;1778557;80;21729;-73
2022/09/08 06:55:51;;;;;;;8.87;4.80;;;;;;;18.59;40.45;100791.10;1795640;78;21686;-73
2022/09/08 06:58:38;;;;;;;8.73;4.97;;;;;;;18.69;40.90;100784.93;1779333;80;21667;-72
2022/09/08 07:01:42;;;;;;;;;;;;;;;;;;;;;
2022/09/08 07:04:31;;;;;;;8.77;4.60;;;;;;;18.92;39.98;100793.90;1780883;79;21634;-72
2022/09/08 07:07:38;;;;;;;7.40;4.60;;;;;;;19.06;38.68;100801.16;1777746;80;21817;-73
2022/09/08 07:10:35;;;;;;;8.43;5.00;;;;;;;19.14;37.96;100800.41;1791525;78;21783;-72
2022/09/08 07:13:13;;;;;;;8.13;4.30;;;;;;;19.25;37.16;100800.41;1807181;78;22171;-71
2022/09/08 07:16:13;;;;;;;8.17;4.73;;;;;;;19.34;36.70;100800.45;1823177;78;21713;-74
2022/09/08 07:18:51;;;;;;;8.50;4.80;;;;;;;19.42;36.04;100792.94;1793268;79;21624;-73
2022/09/08 07:21:49;;;;;;;8.27;4.87;;;;;;;19.51;35.85;100807.31;1791211;80;21446;-72
2022/09/08 07:24:17;;;;;;;8.27;4.53;;;;;;;19.61;36.56;100804.89;1791075;80;21527;-71
2022/09/08 07:26:51;;;;;;;7.70;4.70;;;;;;;19.75;36.71;100808.36;1791149;80;21022;-72
2022/09/08 07:29:31;;;;;;;7.07;3.93;;;;;;;19.86;36.13;100809.66;1800234;79;21503;-72
2022/09/08 07:31:58;;;;;;;9.60;3.60;;;;;;;19.94;34.95;100816.78;1784861;79;21622;-74
2022/09/08 07:34:27;;;;;;;7.27;3.60;;;;;;;20.02;34.94;100811.96;1809664;79;21580;-71
2022/09/08 07:37:13;;;;;;;7.63;3.70;;;;;;;20.09;34.19;100813.09;1809688;79;21049;-72
2022/09/08 07:39:59;;;;;;;6.00;3.67;;;;;;;20.17;34.17;100814.25;1809682;79;21421;-73
2022/09/08 07:42:26;;;;;;;6.33;3.23;;;;;;;20.24;34.41;100818.65;1808960;79;21018;-72
2022/09/08 07:45:01;;;;;;;5.97;3.47;;;;;;;20.32;33.56;100818.42;1809802;79;21698;-71
2022/09/08 07:47:49;;;;;;;5.30;2.70;;;;;;;20.37;33.59;100819.64;1794808;79;21084;-74
2022/09/08 07:53:59;;;;;;;4.20;2.57;;;;;;;20.51;32.70;100820.32;1780719;80;21445;-73
2022/09/08 07:56:50;;;;;;;4.97;1.90;;;;;;;20.64;32.43;100820.50;1793473;80;21478;-72
2022/09/08 07:59:31;;;;;;;4.40;2.10;;;;;;;20.72;30.37;100820.48;1825874;78;21750;-73
2022/09/08 08:02:22;;;;;;;5.83;2.35;;;;;;;20.75;29.47;100820.42;1825795;78;20916;-74
2022/09/08 08:05:09;;;;;;;5.00;2.23;;;;;;;20.77;29.76;100816.84;1824971;78;21101;-73
2022/09/08 08:08:05;;;;;;;4.70;2.30;;;;;;;20.84;29.56;100811.72;1824694;78;20999;-71
2022/09/08 08:10:49;;;;;;;7.30;2.27;;;;;;;20.90;28.81;100811.01;1825638;78;21007;-74
2022/09/08 08:13:24;;;;;;;4.53;1.83;;;;;;;20.97;28.29;100811.32;1824327;78;21167;-74
2022/09/08 08:16:00;;;;;;;4.20;1.63;;;;;;;21.00;28.49;100806.61;1825676;78;21522;-71
2022/09/08 08:18:54;;;;;;;5.00;1.90;;;;;;;21.06;27.42;100804.77;1825743;78;21082;-74
2022/09/08 08:21:29;;;;;;;4.37;1.90;;;;;;;21.12;27.82;100796.43;1825002;78;21002;-72
2022/09/08 08:24:19;;;;;;;4.63;1.70;;;;;;;21.19;27.24;100798.09;1825797;78;21003;-73
2022/09/08 08:26:54;;;;;;;3.10;1.73;;;;;;;21.22;27.01;100799.63;1797965;78;21570;-73
2022/09/08 08:29:56;;;;;;;5.27;2.00;;;;;;;21.29;26.81;100803.22;1825689;78;20955;-71
2022/09/08 08:32:34;;;;;;;4.65;2.12;;;;;;;21.34;26.07;100802.23;1825819;78;21451;-73
2022/09/08 08:35:28;;;;;;;5.40;1.90;;;;;;;21.42;27.09;100792.74;1825686;78;20975;-75
2022/09/08 08:37:54;;;;;;;6.60;2.53;;;;;;;21.52;26.89;100791.59;1824584;78;21011;-73
2022/09/08 08:40:47;;;;;;;6.23;2.80;;;;;;;21.63;27.49;100794.18;1825924;78;21188;-75
2022/09/08 08:43:33;;;;;;;;;;;;;;;21.71;28.04;100790.62;1828390;78;21018;-73
2022/09/08 08:46:14;;;;;;;8.33;2.80;;;;;;;21.77;28.34;100785.23;1825310;78;20165;-73
2022/09/08 08:48:55;;;;;;;5.47;2.72;;;;;;;21.86;28.49;100785.20;1826167;78;20999;-72
2022/09/08 08:51:55;;;;;;;7.60;2.23;;;;;;;21.96;27.47;100792.20;1825569;78;20932;-72
2022/09/08 08:54:44;;;;;;;6.20;2.60;;;;;;;22.04;27.39;100783.75;1817474;78;21707;-74
2022/09/08 08:57:48;;;;;;;6.20;2.83;;;;;;;22.13;26.39;100780.42;1813100;78;21089;-73
2022/09/08 09:00:23;;;;;;;5.43;2.70;;;;;;;22.10;26.57;100781.87;1793370;80;21551;-73
2022/09/08 09:03:01;;;;;;;5.47;2.87;;;;;;;22.11;26.92;100779.94;1793181;80;21007;-74
2022/09/08 09:05:46;;;;;;;8.87;2.90;;;;;;;22.16;26.55;100780.59;1825337;78;21483;-74
2022/09/08 09:08:37;;;;;;;5.80;2.90;;;;;;;22.26;26.56;100782.70;1793378;80;21595;-73
2022/09/08 09:11:50;;;;;;;6.17;3.08;;;;;;;22.37;26.92;100781.96;1793502;80;21189;-72
2022/09/08 09:14:44;;;;;;;9.03;3.23;;;;;;;22.40;26.55;100779.15;1793036;78;21039;-72
2022/09/08 09:17:37;;;;;;;5.20;2.70;;;;;;;22.41;26.74;100784.27;1761949;80;21048;-72
2022/09/08 09:20:25;;;;;;;6.53;2.93;;;;;;;22.41;26.18;100778.04;1756218;79;21073;-72
2022/09/08 09:23:15;;;;;;;7.13;3.50;;;;;;;22.40;26.02;100779.15;1793150;80;21638;-73
2022/09/08 09:26:00;;;;;;;7.93;3.60;;;;;;;22.41;26.17;100769.30;1792758;79;21467;-73
2022/09/08 09:28:52;;;;;;;6.80;3.07;;;;;;;22.47;25.90;100767.16;1793406;80;21094;-73
2022/09/08 09:31:53;;;;;;;7.30;2.77;;;;;;;22.56;26.26;100769.26;1793343;80;20977;-73
2022/09/08 09:35:03;;;;;;;8.90;3.27;;;;;;;22.70;25.99;100767.08;1793367;80;21001;-71
2022/09/08 09:37:48;;;;;;;6.27;3.03;;;;;;;22.78;25.97;100765.97;1793158;79;21594;-72
2022/09/08 09:40:29;;;;;;;6.83;2.90;;;;;;;22.89;25.50;100768.50;1793307;80;20993;-73
2022/09/08 09:43:20;;;;;;;;;;;;;;;22.94;25.40;100766.97;1795630;79;21051;-72
2022/09/08 09:46:34;;;;;;;6.23;2.60;;;;;;;22.98;25.17;100782.87;1790687;78;20168;-72
2022/09/08 09:49:21;;;;;;;6.47;2.53;;;;;;;22.91;24.48;100780.66;1791526;80;21056;-73
2022/09/08 09:52:21;;;;;;;8.23;2.70;;;;;;;22.88;24.49;100775.08;1800860;78;21129;-71
2022/09/08 09:55:28;;;;;;;4.80;2.37;;;;;;;22.93;24.64;100780.34;1793208;78;21058;-72
2022/09/08 09:58:20;;;;;;;7.03;2.90;;;;;;;22.92;24.38;100780.09;1823376;78;21039;-73
2022/09/08 10:01:16;;;;;;;4.92;2.20;;;;;;;22.96;24.55;100778.88;1812450;79;21012;-73
2022/09/08 10:04:14;;;;;;;6.57;2.93;;;;;;;23.01;24.05;100782.20;1790820;78;20962;-73
2022/09/08 10:07:16;;;;;;;6.07;3.00;;;;;;;23.09;24.64;100782.67;1825783;78;21971;-74
2022/09/08 10:10:11;;;;;;;5.37;2.40;;;;;;;23.19;24.37;100790.98;1825662;78;20935;-74
2022/09/08 10:12:54;;;;;;;4.70;2.70;;;;;;;23.29;24.72;100788.40;1826117;78;20944;-72
2022/09/08 10:15:56;;;;;;;7.28;3.17;;;;;;;23.37;24.01;100791.61;1826513;78;20994;-72
2022/09/08 10:18:55;;;;;;;;;;;;;;;23.39;24.35;100789.33;1828171;78;21022;-72
2022/09/08 10:21:48;;;;;;;6.30;2.60;;;;;;;23.39;23.71;100790.69;1768636;78;21870;-71
2022/09/08 10:24:39;;;;;;;8.47;2.80;;;;;;;23.34;24.04;100796.37;1761656;81;21083;-72
2022/09/08 10:27:37;;;;;;;5.33;2.65;;;;;;;23.35;23.87;100793.30;1793510;80;21509;-74
2022/09/08 10:30:13;;;;;;;6.10;2.47;;;;;;;23.41;23.72;100790.59;1793297;80;21082;-72
2022/09/08 10:33:04;;;;;;;7.17;2.73;;;;;;;23.45;23.55;100791.28;1761865;81;21035;-74
2022/09/08 10:35:40;;;;;;;4.47;2.67;;;;;;;23.45;23.90;100789.34;1793244;80;21133;-74
2022/09/08 10:38:37;;;;;;;6.10;2.80;;;;;;;23.47;23.39;100798.56;1819005;78;20951;-73
2022/09/08 10:41:29;;;;;;;4.70;2.87;;;;;;;23.51;24.00;100797.53;1793299;80;21079;-73
2022/09/08 10:44:17;;;;;;;6.07;3.40;;;;;;;23.58;24.10;100791.52;1793227;80;21088;-71
2022/09/08 10:47:04;;;;;;;6.33;2.83;;;;;;;23.60;24.01;100799.59;1825617;78;20970;-72
2022/09/08 10:49:48;;;;;;;4.97;3.10;;;;;;;23.60;22.67;100800.96;1793633;80;21133;-71
2022/09/08 10:52:32;;;;;;;6.10;3.40;;;;;;;23.57;23.03;100799.48;1764560;80;21067;-73
2022/09/08 10:55:12;;;;;;;7.67;3.17;;;;;;;23.59;22.71;100794.47;1780915;79;21543;-73
2022/09/08 10:57:59;;;;;;;6.00;3.00;;;;;;;23.64;22.22;100790.17;1780496;80;20975;-73
2022/09/08 11:00:43;;;;;;;5.33;2.87;;;;;;;23.68;22.13;100785.65;1766832;80;21003;-72
2022/09/08 11:03:37;;;;;;;5.80;3.17;;;;;;;23.75;21.90;100781.00;1779905;80;21276;-73
2022/09/08 11:06:10;;;;;;;7.37;4.07;;;;;;;23.72;22.76;100785.19;1780630;80;21036;-75
2022/09/08 11:09:00;;;;;;;7.20;3.60;;;;;;;23.69;23.40;100789.99;1774817;80;21041;-71
2022/09/08 11:11:54;;;;;;;6.77;3.60;;;;;;;23.67;22.06;100785.98;1797587;79;21013;-75
2022/09/08 11:14:46;;;;;;;5.73;3.33;;;;;;;23.70;22.11;100782.60;1809332;79;20992;-73
2022/09/08 11:17:27;;;;;;;6.55;3.30;;;;;;;23.71;21.57;100778.73;1793570;80;21791;-72
2022/09/08 11:20:15;;;;;;;5.77;3.60;;;;;;;23.71;21.38;100776.00;1824700;78;21004;-73
2022/09/08 11:23:15;;;;;;;5.60;2.93;;;;;;;23.71;22.03;100771.91;1824617;78;21058;-72
2022/09/08 11:26:11;;;;;;;6.20;3.17;;;;;;;23.79;20.92;100768.27;1797384;79;21188;-73
2022/09/08 11:29:03;;;;;;;6.50;3.73;;;;;;;23.79;20.43;100769.63;1791966;80;21070;-73
2022/09/08 11:31:52;;;;;;;6.58;3.47;;;;;;;23.73;20.63;100761.47;1805039;79;21099;-73
2022/09/08 11:34:57;;;;;;;6.53;3.60;;;;;;;23.75;21.09;100762.70;1823441;78;20977;-70
2022/09/08 11:37:48;;;;;;;9.07;4.30;;;;;;;23.79;21.01;100770.45;1823284;78;21114;-72
2022/09/08 11:40:51;;;;;;;9.45;4.30;;;;;;;23.86;20.42;100772.03;1823876;78;20977;-71
2022/09/08 11:43:56;;;;;;;9.85;6.08;;;;;;;23.86;20.36;100767.15;1824480;78;21037;-73
2022/09/08 11:46:52;;;;;;;13.60;7.20;;;;;;;23.93;21.02;100770.09;1822672;78;21303;-73
2022/09/08 11:49:29;;;;;;;17.43;9.63;;;;;;;23.98;22.17;100763.60;1808798;78;21014;-72
2022/09/08 11:52:18;;;;;;;14.40;9.60;;;;;;;23.97;22.01;100762.81;1793424;80;21547;-74
2022/09/08 11:55:12;;;;;;;16.20;10.03;;;;;;;23.97;22.01;100772.93;1792595;80;21531;-71
2022/09/08 11:58:12;;;;;;;19.70;10.00;;;;;;;23.98;21.76;100767.12;1792961;80;21071;-72
2022/09/08 12:01:04;;;;;;;14.33;9.83;;;;;;;23.92;22.39;100766.33;1793382;80;21899;-73
2022/09/08 12:03:52;;;;;;;13.87;9.77;;;;;;;23.88;22.29;100771.67;1792223;78;20950;-72
2022/09/08 12:06:34;;;;;;;16.30;10.30;;;;;;;23.86;21.88;100763.06;1791262;80;20973;-73
2022/09/08 12:09:21;;;;;;;12.78;9.38;;;;;;;23.88;22.10;100762.92;1793385;79;21457;-74
2022/09/08 12:12:36;;;;;;;16.77;10.07;;;;;;;23.90;22.63;100757.71;1791020;79;21151;-73
2022/09/08 12:15:20;;;;;;;14.20;9.30;;;;;;;23.92;22.22;100759.51;1813193;78;21468;-72
2022/09/08 12:18:19;;;;;;;14.97;8.80;;;;;;;23.91;22.19;100757.35;1819090;78;20987;-72
2022/09/08 12:20:56;;;;;;;12.27;8.07;;;;;;;23.90;22.22;100758.50;1825889;78;20993;-74
2022/09/08 12:23:37;;;;;;;12.63;8.20;;;;;;;23.88;22.28;100762.13;1825844;78;21024;-72
2022/09/08 12:26:27;;;;;;;12.03;8.13;;;;;;;23.89;21.95;100765.10;1826159;78;20993;-70
2022/09/08 12:29:31;;;;;;;13.90;8.60;;;;;;;23.89;22.54;100756.92;1825813;78;21064;-72
2022/09/08 12:32:41;;;;;;;12.70;8.43;;;;;;;23.94;22.94;100762.13;1825915;78;21495;-73
2022/09/08 12:35:33;;;;;;;12.03;8.13;;;;;;;23.98;22.60;100756.20;1825801;78;21047;-71
2022/09/08 12:38:33;;;;;;;;;;;;;;;24.07;22.41;100755.52;1764650;81;20959;-72
2022/09/08 12:41:14;;;;;;;10.17;6.50;;;;;;;24.10;22.23;100760.30;1762012;81;20437;-73
2022/09/08 12:43:42;;;;;;;10.93;6.00;;;;;;;24.07;22.69;100752.79;1793259;80;21234;-72
2022/09/08 12:46:34;;;;;;;8.47;5.30;;;;;;;24.09;23.05;100762.02;1793328;80;21018;-73
2022/09/08 12:49:31;;;;;;;9.68;5.50;;;;;;;24.08;21.83;100766.65;1811744;78;21087;-73
2022/09/08 12:52:02;;;;;;;9.20;5.60;;;;;;;24.10;21.68;100763.02;1792828;80;21580;-74
2022/09/08 12:54:53;;;;;;;11.80;5.70;;;;;;;24.13;21.99;100755.30;1795050;78;20978;-73
2022/09/08 12:57:34;;;;;;;10.77;5.40;;;;;;;24.16;21.74;100750.52;1776387;79;21209;-73
2022/09/08 13:00:11;;;;;;;10.32;4.85;;;;;;;24.15;21.33;100750.27;1793644;79;21536;-72
2022/09/08 13:03:08;;;;;;;8.67;5.27;;;;;;;24.11;21.07;100756.41;1793050;79;21025;-73
2022/09/08 13:05:58;;;;;;;8.73;4.90;;;;;;;24.08;21.11;100753.01;1796252;78;21539;-73
2022/09/08 13:08:46;;;;;;;9.70;4.77;;;;;;;24.07;21.04;100749.27;1813252;78;38147;-73
2022/09/08 13:11:30;;;;;;;7.47;4.50;;;;;;;24.10;21.68;100749.37;1815551;78;21243;-72
2022/09/08 13:14:09;;;;;;;8.17;4.73;;;;;;;24.15;21.37;100746.97;1821309;78;21015;-75